sensor_id;sensor_type;location;lat;lon;timestamp;P1;durP1;ratioP1;P2;durP2;ratioP2
19251;SDS011;9760;50.944;5.304;2023-04-01T00:00:51;5.77;;;1.97;;
19251;SDS011;9760;50.944;5.304;2023-04-01T00:03:18;5.80;;;2.30;;
19251;SDS011;9760;50.944;5.304;2023-04-01T00:05:44;6.23;;;2.10;;
19251;SDS011;9760;50.944;5.304;2023-04-01T00:08:10;4.93;;;1.73;;
19251;SDS011;9760;50.944;5.304;2023-04-01T00:10:36;12.60;;;2.30;;
19251;SDS011;9760;50.944;5.304;2023-04-01T00:13:02;7.33;;;2.10;;
19251;SDS011;9760;50.944;5.304;2023-04-01T00:15:28;6.57;;;2.13;;
19251;SDS011;9760;50.944;5.304;2023-04-01T00:17:54;7.00;;;2.30;;
19251;SDS011;9760;50.944;5.304;2023-04-01T00:20:20;3.23;;;1.90;;
19251;SDS011;9760;50.944;5.304;2023-04-01T00:22:46;4.63;;;1.90;;
19251;SDS011;9760;50.944;5.304;2023-04-01T00:25:11;4.17;;;2.17;;
19251;SDS011;9760;50.944;5.304;2023-04-01T00:27:38;4.80;;;2.00;;
19251;SDS011;9760;50.944;5.304;2023-04-01T00:30:04;5.73;;;1.97;;
19251;SDS011;9760;50.944;5.304;2023-04-01T00:32:30;5.87;;;2.40;;
19251;SDS011;9760;50.944;5.304;2023-04-01T00:34:56;6.73;;;1.90;;
19251;SDS011;9760;50.944;5.304;2023-04-01T00:37:24;7.40;;;2.83;;
19251;SDS011;9760;50.944;5.304;2023-04-01T00:39:50;3.80;;;2.30;;
19251;SDS011;9760;50.944;5.304;2023-04-01T00:42:16;4.83;;;1.73;;
19251;SDS011;9760;50.944;5.304;2023-04-01T00:44:42;6.70;;;1.90;;
19251;SDS011;9760;50.944;5.304;2023-04-01T00:47:07;6.20;;;2.00;;
19251;SDS011;9760;50.944;5.304;2023-04-01T00:49:38;8.67;;;2.33;;
19251;SDS011;9760;50.944;5.304;2023-04-01T00:52:05;8.00;;;2.20;;
19251;SDS011;9760;50.944;5.304;2023-04-01T00:54:36;3.53;;;1.57;;
19251;SDS011;9760;50.944;5.304;2023-04-01T00:57:05;3.30;;;1.80;;
19251;SDS011;9760;50.944;5.304;2023-04-01T00:59:39;7.10;;;2.07;;
19251;SDS011;9760;50.944;5.304;2023-04-01T01:02:08;5.57;;;1.97;;
19251;SDS011;9760;50.944;5.304;2023-04-01T01:04:36;5.03;;;1.80;;
19251;SDS011;9760;50.944;5.304;2023-04-01T01:09:58;7.60;;;2.13;;
19251;SDS011;9760;50.944;5.304;2023-04-01T01:18:05;6.17;;;2.13;;
19251;SDS011;9760;50.944;5.304;2023-04-01T01:21:04;6.27;;;2.60;;
19251;SDS011;9760;50.944;5.304;2023-04-01T01:29:09;5.63;;;2.67;;
19251;SDS011;9760;50.944;5.304;2023-04-01T01:37:36;6.77;;;2.30;;
19251;SDS011;9760;50.944;5.304;2023-04-01T01:40:05;8.93;;;2.50;;
19251;SDS011;9760;50.944;5.304;2023-04-01T01:42:33;6.80;;;2.57;;
19251;SDS011;9760;50.944;5.304;2023-04-01T01:45:02;8.63;;;2.00;;
19251;SDS011;9760;50.944;5.304;2023-04-01T01:47:31;5.00;;;1.87;;
19251;SDS011;9760;50.944;5.304;2023-04-01T01:49:58;7.57;;;2.10;;
19251;SDS011;9760;50.944;5.304;2023-04-01T01:52:26;9.63;;;1.90;;
19251;SDS011;9760;50.944;5.304;2023-04-01T01:54:56;7.97;;;1.60;;
19251;SDS011;9760;50.944;5.304;2023-04-01T01:57:23;5.63;;;1.60;;
19251;SDS011;9760;50.944;5.304;2023-04-01T01:59:52;11.07;;;2.10;;
19251;SDS011;9760;50.944;5.304;2023-04-01T02:02:23;3.97;;;1.60;;
19251;SDS011;9760;50.944;5.304;2023-04-01T02:04:51;4.60;;;1.80;;
19251;SDS011;9760;50.944;5.304;2023-04-01T02:07:25;3.77;;;1.60;;
19251;SDS011;9760;50.944;5.304;2023-04-01T02:09:55;6.70;;;1.87;;
19251;SDS011;9760;50.944;5.304;2023-04-01T02:12:21;5.57;;;1.90;;
19251;SDS011;9760;50.944;5.304;2023-04-01T02:17:26;10.47;;;2.27;;
19251;SDS011;9760;50.944;5.304;2023-04-01T02:20:16;4.07;;;2.17;;
19251;SDS011;9760;50.944;5.304;2023-04-01T02:22:54;5.10;;;1.97;;
19251;SDS011;9760;50.944;5.304;2023-04-01T02:25:28;4.57;;;2.20;;
19251;SDS011;9760;50.944;5.304;2023-04-01T02:27:55;4.73;;;2.10;;
19251;SDS011;9760;50.944;5.304;2023-04-01T02:30:24;4.00;;;2.03;;
19251;SDS011;9760;50.944;5.304;2023-04-01T02:32:51;3.97;;;1.97;;
19251;SDS011;9760;50.944;5.304;2023-04-01T02:35:18;2.23;;;1.80;;
19251;SDS011;9760;50.944;5.304;2023-04-01T02:37:45;4.40;;;1.77;;
19251;SDS011;9760;50.944;5.304;2023-04-01T02:40:14;3.33;;;1.87;;
19251;SDS011;9760;50.944;5.304;2023-04-01T02:42:41;4.50;;;1.90;;
19251;SDS011;9760;50.944;5.304;2023-04-01T02:45:07;3.23;;;1.70;;
19251;SDS011;9760;50.944;5.304;2023-04-01T02:47:33;1.97;;;1.57;;
19251;SDS011;9760;50.944;5.304;2023-04-01T02:49:59;4.13;;;2.23;;
19251;SDS011;9760;50.944;5.304;2023-04-01T02:52:25;2.90;;;1.70;;
19251;SDS011;9760;50.944;5.304;2023-04-01T02:54:51;3.57;;;1.80;;
19251;SDS011;9760;50.944;5.304;2023-04-01T02:57:17;3.40;;;1.80;;
19251;SDS011;9760;50.944;5.304;2023-04-01T02:59:42;2.20;;;1.57;;
19251;SDS011;9760;50.944;5.304;2023-04-01T03:02:08;3.27;;;1.70;;
19251;SDS011;9760;50.944;5.304;2023-04-01T03:04:34;3.33;;;2.13;;
19251;SDS011;9760;50.944;5.304;2023-04-01T03:07:00;3.43;;;2.10;;
19251;SDS011;9760;50.944;5.304;2023-04-01T03:09:25;7.87;;;2.20;;
19251;SDS011;9760;50.944;5.304;2023-04-01T03:11:51;4.40;;;2.07;;
19251;SDS011;9760;50.944;5.304;2023-04-01T03:14:16;6.07;;;2.53;;
19251;SDS011;9760;50.944;5.304;2023-04-01T03:16:42;3.33;;;2.27;;
19251;SDS011;9760;50.944;5.304;2023-04-01T03:19:08;4.57;;;2.33;;
19251;SDS011;9760;50.944;5.304;2023-04-01T03:21:33;6.23;;;2.27;;
19251;SDS011;9760;50.944;5.304;2023-04-01T03:23:59;4.67;;;2.63;;
19251;SDS011;9760;50.944;5.304;2023-04-01T03:26:25;6.13;;;2.47;;
19251;SDS011;9760;50.944;5.304;2023-04-01T03:28:52;7.20;;;2.77;;
19251;SDS011;9760;50.944;5.304;2023-04-01T03:31:18;6.20;;;2.30;;
19251;SDS011;9760;50.944;5.304;2023-04-01T03:33:44;5.43;;;2.30;;
19251;SDS011;9760;50.944;5.304;2023-04-01T03:36:10;5.60;;;2.10;;
19251;SDS011;9760;50.944;5.304;2023-04-01T03:38:37;2.73;;;1.70;;
19251;SDS011;9760;50.944;5.304;2023-04-01T03:41:05;3.97;;;2.10;;
19251;SDS011;9760;50.944;5.304;2023-04-01T03:43:31;5.77;;;2.10;;
19251;SDS011;9760;50.944;5.304;2023-04-01T03:45:57;5.57;;;2.57;;
19251;SDS011;9760;50.944;5.304;2023-04-01T03:48:24;3.37;;;2.17;;
19251;SDS011;9760;50.944;5.304;2023-04-01T03:50:50;4.00;;;2.60;;
19251;SDS011;9760;50.944;5.304;2023-04-01T03:53:16;5.73;;;2.53;;
19251;SDS011;9760;50.944;5.304;2023-04-01T03:55:42;6.20;;;2.87;;
19251;SDS011;9760;50.944;5.304;2023-04-01T03:58:08;8.13;;;2.87;;
19251;SDS011;9760;50.944;5.304;2023-04-01T04:00:34;3.10;;;2.33;;
19251;SDS011;9760;50.944;5.304;2023-04-01T04:03:00;7.50;;;2.77;;
19251;SDS011;9760;50.944;5.304;2023-04-01T04:05:25;6.70;;;3.17;;
19251;SDS011;9760;50.944;5.304;2023-04-01T04:07:51;7.37;;;3.60;;
19251;SDS011;9760;50.944;5.304;2023-04-01T04:10:18;6.83;;;3.47;;
19251;SDS011;9760;50.944;5.304;2023-04-01T04:12:44;6.97;;;3.30;;
19251;SDS011;9760;50.944;5.304;2023-04-01T04:15:10;7.17;;;2.90;;
19251;SDS011;9760;50.944;5.304;2023-04-01T04:17:36;5.73;;;3.47;;
19251;SDS011;9760;50.944;5.304;2023-04-01T04:20:02;5.80;;;3.80;;
19251;SDS011;9760;50.944;5.304;2023-04-01T04:22:28;4.37;;;2.90;;
19251;SDS011;9760;50.944;5.304;2023-04-01T04:24:53;6.57;;;3.07;;
19251;SDS011;9760;50.944;5.304;2023-04-01T04:27:19;7.07;;;3.10;;
19251;SDS011;9760;50.944;5.304;2023-04-01T04:29:45;9.43;;;3.60;;
19251;SDS011;9760;50.944;5.304;2023-04-01T04:32:10;5.07;;;3.40;;
19251;SDS011;9760;50.944;5.304;2023-04-01T04:34:36;7.07;;;3.20;;
19251;SDS011;9760;50.944;5.304;2023-04-01T04:37:02;8.67;;;3.90;;
19251;SDS011;9760;50.944;5.304;2023-04-01T04:39:27;8.13;;;3.60;;
19251;SDS011;9760;50.944;5.304;2023-04-01T04:41:53;7.97;;;3.80;;
19251;SDS011;9760;50.944;5.304;2023-04-01T04:44:19;12.03;;;3.77;;
19251;SDS011;9760;50.944;5.304;2023-04-01T04:46:45;5.97;;;3.63;;
19251;SDS011;9760;50.944;5.304;2023-04-01T04:49:10;8.67;;;4.03;;
19251;SDS011;9760;50.944;5.304;2023-04-01T04:51:36;10.93;;;4.70;;
19251;SDS011;9760;50.944;5.304;2023-04-01T04:54:02;17.97;;;4.90;;
19251;SDS011;9760;50.944;5.304;2023-04-01T04:56:29;15.97;;;6.00;;
19251;SDS011;9760;50.944;5.304;2023-04-01T04:58:55;13.23;;;5.67;;
19251;SDS011;9760;50.944;5.304;2023-04-01T05:01:21;10.90;;;5.87;;
19251;SDS011;9760;50.944;5.304;2023-04-01T05:03:47;13.27;;;6.23;;
19251;SDS011;9760;50.944;5.304;2023-04-01T05:06:13;18.07;;;6.40;;
19251;SDS011;9760;50.944;5.304;2023-04-01T05:08:40;23.50;;;6.27;;
19251;SDS011;9760;50.944;5.304;2023-04-01T05:11:09;15.17;;;7.30;;
19251;SDS011;9760;50.944;5.304;2023-04-01T05:13:40;14.20;;;6.10;;
19251;SDS011;9760;50.944;5.304;2023-04-01T05:16:10;19.50;;;6.77;;
19251;SDS011;9760;50.944;5.304;2023-04-01T05:18:37;13.97;;;6.80;;
19251;SDS011;9760;50.944;5.304;2023-04-01T05:21:03;14.00;;;6.53;;
19251;SDS011;9760;50.944;5.304;2023-04-01T05:23:30;21.63;;;6.90;;
19251;SDS011;9760;50.944;5.304;2023-04-01T05:25:57;11.70;;;6.07;;
19251;SDS011;9760;50.944;5.304;2023-04-01T05:28:22;13.97;;;6.43;;
19251;SDS011;9760;50.944;5.304;2023-04-01T05:30:48;22.53;;;7.30;;
19251;SDS011;9760;50.944;5.304;2023-04-01T05:33:13;15.20;;;6.70;;
19251;SDS011;9760;50.944;5.304;2023-04-01T05:35:40;18.40;;;6.80;;
19251;SDS011;9760;50.944;5.304;2023-04-01T05:38:05;15.27;;;6.47;;
19251;SDS011;9760;50.944;5.304;2023-04-01T05:40:31;18.40;;;7.10;;
19251;SDS011;9760;50.944;5.304;2023-04-01T05:42:58;18.60;;;6.70;;
19251;SDS011;9760;50.944;5.304;2023-04-01T05:45:23;14.53;;;6.43;;
19251;SDS011;9760;50.944;5.304;2023-04-01T05:47:49;13.33;;;6.07;;
19251;SDS011;9760;50.944;5.304;2023-04-01T05:50:15;13.87;;;5.77;;
19251;SDS011;9760;50.944;5.304;2023-04-01T05:52:41;12.10;;;5.57;;
19251;SDS011;9760;50.944;5.304;2023-04-01T05:55:07;13.07;;;5.90;;
19251;SDS011;9760;50.944;5.304;2023-04-01T05:57:32;16.47;;;6.00;;
19251;SDS011;9760;50.944;5.304;2023-04-01T05:59:58;9.40;;;5.30;;
19251;SDS011;9760;50.944;5.304;2023-04-01T06:02:24;9.53;;;4.90;;
19251;SDS011;9760;50.944;5.304;2023-04-01T06:05:00;9.53;;;4.73;;
19251;SDS011;9760;50.944;5.304;2023-04-01T06:08:01;9.20;;;4.50;;
19251;SDS011;9760;50.944;5.304;2023-04-01T06:13:28;11.53;;;5.50;;
19251;SDS011;9760;50.944;5.304;2023-04-01T06:19:09;7.10;;;4.30;;
19251;SDS011;9760;50.944;5.304;2023-04-01T06:30:21;12.00;;;4.77;;
19251;SDS011;9760;50.944;5.304;2023-04-01T06:38:18;6.13;;;4.53;;
19251;SDS011;9760;50.944;5.304;2023-04-01T06:41:12;6.47;;;5.00;;
19251;SDS011;9760;50.944;5.304;2023-04-01T06:44:06;6.40;;;4.73;;
19251;SDS011;9760;50.944;5.304;2023-04-01T06:55:41;4.33;;;2.63;;
19251;SDS011;9760;50.944;5.304;2023-04-01T06:58:21;4.43;;;3.03;;
19251;SDS011;9760;50.944;5.304;2023-04-01T07:00:48;4.97;;;2.90;;
19251;SDS011;9760;50.944;5.304;2023-04-01T07:03:21;5.23;;;2.70;;
19251;SDS011;9760;50.944;5.304;2023-04-01T07:05:56;3.43;;;2.20;;
19251;SDS011;9760;50.944;5.304;2023-04-01T07:08:27;4.50;;;1.90;;
19251;SDS011;9760;50.944;5.304;2023-04-01T07:13:46;2.63;;;2.00;;
19251;SDS011;9760;50.944;5.304;2023-04-01T07:16:20;5.07;;;2.03;;
19251;SDS011;9760;50.944;5.304;2023-04-01T07:18:57;2.80;;;2.40;;
19251;SDS011;9760;50.944;5.304;2023-04-01T07:21:33;2.47;;;2.27;;
19251;SDS011;9760;50.944;5.304;2023-04-01T07:24:06;2.30;;;2.10;;
19251;SDS011;9760;50.944;5.304;2023-04-01T07:26:37;4.70;;;2.40;;
19251;SDS011;9760;50.944;5.304;2023-04-01T07:29:05;3.77;;;2.10;;
19251;SDS011;9760;50.944;5.304;2023-04-01T07:45:56;2.43;;;2.30;;
19251;SDS011;9760;50.944;5.304;2023-04-01T07:48:54;2.60;;;2.40;;
19251;SDS011;9760;50.944;5.304;2023-04-01T07:51:35;2.60;;;2.10;;
19251;SDS011;9760;50.944;5.304;2023-04-01T07:54:22;2.50;;;2.30;;
19251;SDS011;9760;50.944;5.304;2023-04-01T08:00:10;3.70;;;2.10;;
19251;SDS011;9760;50.944;5.304;2023-04-01T08:16:12;2.80;;;1.70;;
19251;SDS011;9760;50.944;5.304;2023-04-01T08:22:10;2.43;;;2.23;;
19251;SDS011;9760;50.944;5.304;2023-04-01T08:24:43;4.33;;;2.13;;
19251;SDS011;9760;50.944;5.304;2023-04-01T08:27:12;2.70;;;2.30;;
19251;SDS011;9760;50.944;5.304;2023-04-01T08:29:41;2.57;;;2.37;;
19251;SDS011;9760;50.944;5.304;2023-04-01T08:32:30;2.83;;;2.43;;
19251;SDS011;9760;50.944;5.304;2023-04-01T08:35:50;3.27;;;2.37;;
19251;SDS011;9760;50.944;5.304;2023-04-01T08:37:51;6.77;;;3.10;;
19251;SDS011;9760;50.944;5.304;2023-04-01T08:43:09;4.17;;;2.80;;
19251;SDS011;9760;50.944;5.304;2023-04-01T08:54:02;4.97;;;2.63;;
19251;SDS011;9760;50.944;5.304;2023-04-01T09:02:23;9.17;;;5.37;;
19251;SDS011;9760;50.944;5.304;2023-04-01T09:10:52;3.17;;;1.90;;
19251;SDS011;9760;50.944;5.304;2023-04-01T09:41:09;4.70;;;2.53;;
19251;SDS011;9760;50.944;5.304;2023-04-01T09:46:20;3.50;;;2.93;;
19251;SDS011;9760;50.944;5.304;2023-04-01T09:52:16;3.03;;;2.03;;
19251;SDS011;9760;50.944;5.304;2023-04-01T09:54:56;2.63;;;1.80;;
19251;SDS011;9760;50.944;5.304;2023-04-01T10:00:38;1.83;;;1.50;;
19251;SDS011;9760;50.944;5.304;2023-04-01T10:34:15;3.43;;;2.47;;
19251;SDS011;9760;50.944;5.304;2023-04-01T10:36:54;3.20;;;2.60;;
19251;SDS011;9760;50.944;5.304;2023-04-01T10:51:04;4.60;;;3.20;;
19251;SDS011;9760;50.944;5.304;2023-04-01T10:59:14;3.70;;;3.30;;
19251;SDS011;9760;50.944;5.304;2023-04-01T11:24:57;7.57;;;4.80;;
19251;SDS011;9760;50.944;5.304;2023-04-01T11:30:52;7.87;;;5.97;;
19251;SDS011;9760;50.944;5.304;2023-04-01T11:33:43;11.67;;;6.83;;
19251;SDS011;9760;50.944;5.304;2023-04-01T11:38:49;10.03;;;7.43;;
19251;SDS011;9760;50.944;5.304;2023-04-01T11:44:20;12.20;;;7.60;;
19251;SDS011;9760;50.944;5.304;2023-04-01T11:49:24;17.40;;;7.63;;
19251;SDS011;9760;50.944;5.304;2023-04-01T12:11:36;12.23;;;6.83;;
19251;SDS011;9760;50.944;5.304;2023-04-01T12:14:18;13.20;;;7.20;;
19251;SDS011;9760;50.944;5.304;2023-04-01T12:19:51;8.17;;;5.23;;
19251;SDS011;9760;50.944;5.304;2023-04-01T12:22:43;6.37;;;3.43;;
19251;SDS011;9760;50.944;5.304;2023-04-01T12:29:03;4.63;;;2.73;;
19251;SDS011;9760;50.944;5.304;2023-04-01T12:34:32;4.80;;;2.43;;
19251;SDS011;9760;50.944;5.304;2023-04-01T12:45:32;7.00;;;4.40;;
19251;SDS011;9760;50.944;5.304;2023-04-01T13:02:11;9.30;;;5.73;;
19251;SDS011;9760;50.944;5.304;2023-04-01T13:18:39;9.17;;;4.83;;
19251;SDS011;9760;50.944;5.304;2023-04-01T13:21:25;7.17;;;4.53;;
19251;SDS011;9760;50.944;5.304;2023-04-01T13:26:36;8.57;;;4.33;;
19251;SDS011;9760;50.944;5.304;2023-04-01T13:29:14;7.03;;;4.37;;
19251;SDS011;9760;50.944;5.304;2023-04-01T13:34:47;8.80;;;4.70;;
19251;SDS011;9760;50.944;5.304;2023-04-01T13:37:38;9.17;;;4.80;;
19251;SDS011;9760;50.944;5.304;2023-04-01T13:42:56;8.07;;;5.37;;
19251;SDS011;9760;50.944;5.304;2023-04-01T13:45:38;7.83;;;5.00;;
19251;SDS011;9760;50.944;5.304;2023-04-01T13:53:44;9.33;;;5.80;;
19251;SDS011;9760;50.944;5.304;2023-04-01T13:56:34;11.67;;;6.10;;
19251;SDS011;9760;50.944;5.304;2023-04-01T14:07:50;10.73;;;6.27;;
19251;SDS011;9760;50.944;5.304;2023-04-01T14:22:28;4.63;;;2.93;;
19251;SDS011;9760;50.944;5.304;2023-04-01T14:36:00;3.90;;;3.43;;
19251;SDS011;9760;50.944;5.304;2023-04-01T14:44:17;4.40;;;2.90;;
19251;SDS011;9760;50.944;5.304;2023-04-01T14:47:15;5.33;;;2.77;;
19251;SDS011;9760;50.944;5.304;2023-04-01T14:50:13;3.87;;;2.90;;
19251;SDS011;9760;50.944;5.304;2023-04-01T14:52:44;3.97;;;2.70;;
19251;SDS011;9760;50.944;5.304;2023-04-01T14:55:31;5.93;;;3.70;;
19251;SDS011;9760;50.944;5.304;2023-04-01T14:58:12;3.83;;;2.10;;
19251;SDS011;9760;50.944;5.304;2023-04-01T15:08:54;3.43;;;2.27;;
19251;SDS011;9760;50.944;5.304;2023-04-01T15:22:13;3.93;;;3.00;;
19251;SDS011;9760;50.944;5.304;2023-04-01T15:27:31;6.17;;;2.90;;
19251;SDS011;9760;50.944;5.304;2023-04-01T15:30:22;3.53;;;2.83;;
19251;SDS011;9760;50.944;5.304;2023-04-01T15:43:46;3.13;;;2.30;;
19251;SDS011;9760;50.944;5.304;2023-04-01T16:00:27;4.70;;;2.83;;
19251;SDS011;9760;50.944;5.304;2023-04-01T16:19:59;2.03;;;1.33;;
19251;SDS011;9760;50.944;5.304;2023-04-01T16:22:29;2.53;;;1.37;;
19251;SDS011;9760;50.944;5.304;2023-04-01T16:39:33;2.47;;;1.27;;
19251;SDS011;9760;50.944;5.304;2023-04-01T16:42:35;1.43;;;1.13;;
19251;SDS011;9760;50.944;5.304;2023-04-01T16:47:58;4.17;;;2.73;;
19251;SDS011;9760;50.944;5.304;2023-04-01T16:50:55;5.37;;;3.40;;
19251;SDS011;9760;50.944;5.304;2023-04-01T16:53:43;9.90;;;4.30;;
19251;SDS011;9760;50.944;5.304;2023-04-01T16:56:21;10.53;;;6.47;;
19251;SDS011;9760;50.944;5.304;2023-04-01T17:01:32;11.30;;;6.00;;
19251;SDS011;9760;50.944;5.304;2023-04-01T17:04:19;12.33;;;6.87;;
19251;SDS011;9760;50.944;5.304;2023-04-01T17:14:45;9.93;;;6.90;;
19251;SDS011;9760;50.944;5.304;2023-04-01T17:20:32;10.43;;;7.07;;
19251;SDS011;9760;50.944;5.304;2023-04-01T17:40:21;9.57;;;5.43;;
19251;SDS011;9760;50.944;5.304;2023-04-01T17:45:48;6.23;;;4.57;;
19251;SDS011;9760;50.944;5.304;2023-04-01T17:56:25;6.00;;;3.77;;
19251;SDS011;9760;50.944;5.304;2023-04-01T17:59:01;6.10;;;4.03;;
19251;SDS011;9760;50.944;5.304;2023-04-01T18:24:06;9.33;;;6.87;;
19251;SDS011;9760;50.944;5.304;2023-04-01T18:26:13;10.53;;;6.97;;
19251;SDS011;9760;50.944;5.304;2023-04-01T18:28:52;17.20;;;7.37;;
19251;SDS011;9760;50.944;5.304;2023-04-01T18:31:24;19.13;;;7.43;;
19251;SDS011;9760;50.944;5.304;2023-04-01T18:34:06;10.67;;;6.33;;
19251;SDS011;9760;50.944;5.304;2023-04-01T18:36:35;8.93;;;6.33;;
19251;SDS011;9760;50.944;5.304;2023-04-01T18:39:14;10.40;;;6.83;;
19251;SDS011;9760;50.944;5.304;2023-04-01T18:44:46;13.30;;;7.23;;
19251;SDS011;9760;50.944;5.304;2023-04-01T18:47:38;9.90;;;7.50;;
19251;SDS011;9760;50.944;5.304;2023-04-01T18:52:58;14.20;;;7.17;;
19251;SDS011;9760;50.944;5.304;2023-04-01T18:55:36;9.67;;;7.60;;
19251;SDS011;9760;50.944;5.304;2023-04-01T18:58:32;10.63;;;7.27;;
19251;SDS011;9760;50.944;5.304;2023-04-01T19:01:19;10.37;;;7.13;;
19251;SDS011;9760;50.944;5.304;2023-04-01T19:04:08;18.70;;;8.83;;
19251;SDS011;9760;50.944;5.304;2023-04-01T19:09:43;13.17;;;8.47;;
19251;SDS011;9760;50.944;5.304;2023-04-01T19:15:12;13.60;;;9.23;;
19251;SDS011;9760;50.944;5.304;2023-04-01T19:26:40;17.40;;;10.47;;
19251;SDS011;9760;50.944;5.304;2023-04-01T19:46:17;16.17;;;10.20;;
19251;SDS011;9760;50.944;5.304;2023-04-01T19:54:59;20.33;;;12.93;;
19251;SDS011;9760;50.944;5.304;2023-04-01T19:57:44;17.67;;;11.77;;
19251;SDS011;9760;50.944;5.304;2023-04-01T20:00:31;18.57;;;11.50;;
19251;SDS011;9760;50.944;5.304;2023-04-01T20:03:23;20.00;;;12.83;;
19251;SDS011;9760;50.944;5.304;2023-04-01T20:08:44;22.40;;;12.10;;
19251;SDS011;9760;50.944;5.304;2023-04-01T20:14:04;20.37;;;12.17;;
19251;SDS011;9760;50.944;5.304;2023-04-01T20:19:10;23.63;;;13.37;;
19251;SDS011;9760;50.944;5.304;2023-04-01T20:21:45;21.57;;;13.67;;
19251;SDS011;9760;50.944;5.304;2023-04-01T20:26:45;21.43;;;13.77;;
19251;SDS011;9760;50.944;5.304;2023-04-01T20:35:41;26.60;;;14.73;;
19251;SDS011;9760;50.944;5.304;2023-04-01T20:38:30;29.93;;;16.43;;
19251;SDS011;9760;50.944;5.304;2023-04-01T20:44:13;24.20;;;14.37;;
19251;SDS011;9760;50.944;5.304;2023-04-01T20:46:48;30.13;;;16.70;;
19251;SDS011;9760;50.944;5.304;2023-04-01T20:49:32;31.90;;;16.03;;
19251;SDS011;9760;50.944;5.304;2023-04-01T20:54:41;24.73;;;13.67;;
19251;SDS011;9760;50.944;5.304;2023-04-01T21:06:16;28.33;;;13.57;;
19251;SDS011;9760;50.944;5.304;2023-04-01T21:17:04;24.57;;;13.03;;
19251;SDS011;9760;50.944;5.304;2023-04-01T21:19:49;25.83;;;12.77;;
19251;SDS011;9760;50.944;5.304;2023-04-01T21:25:39;22.83;;;11.77;;
19251;SDS011;9760;50.944;5.304;2023-04-01T21:31:27;20.07;;;10.70;;
19251;SDS011;9760;50.944;5.304;2023-04-01T21:37:10;20.47;;;9.63;;
19251;SDS011;9760;50.944;5.304;2023-04-01T21:58:33;28.60;;;12.43;;
19251;SDS011;9760;50.944;5.304;2023-04-01T22:17:24;21.80;;;11.83;;
19251;SDS011;9760;50.944;5.304;2023-04-01T22:20:10;20.23;;;11.53;;
19251;SDS011;9760;50.944;5.304;2023-04-01T22:25:25;21.20;;;12.00;;
19251;SDS011;9760;50.944;5.304;2023-04-01T22:28:10;21.23;;;11.67;;
19251;SDS011;9760;50.944;5.304;2023-04-01T22:30:49;21.67;;;11.63;;
19251;SDS011;9760;50.944;5.304;2023-04-01T22:38:43;13.33;;;7.47;;
19251;SDS011;9760;50.944;5.304;2023-04-01T22:41:44;14.63;;;8.47;;
19251;SDS011;9760;50.944;5.304;2023-04-01T22:44:20;50.30;;;11.20;;
19251;SDS011;9760;50.944;5.304;2023-04-01T22:47:04;13.33;;;7.60;;
19251;SDS011;9760;50.944;5.304;2023-04-01T22:52:24;15.50;;;9.27;;
19251;SDS011;9760;50.944;5.304;2023-04-01T22:55:27;15.30;;;9.20;;
19251;SDS011;9760;50.944;5.304;2023-04-01T22:57:59;18.33;;;10.83;;
19251;SDS011;9760;50.944;5.304;2023-04-01T23:00:52;16.70;;;10.33;;
19251;SDS011;9760;50.944;5.304;2023-04-01T23:03:41;19.30;;;11.07;;
19251;SDS011;9760;50.944;5.304;2023-04-01T23:06:13;20.20;;;11.20;;
19251;SDS011;9760;50.944;5.304;2023-04-01T23:14:02;19.80;;;10.13;;
19251;SDS011;9760;50.944;5.304;2023-04-01T23:27:55;22.27;;;12.87;;
19251;SDS011;9760;50.944;5.304;2023-04-01T23:38:17;24.03;;;13.20;;
19251;SDS011;9760;50.944;5.304;2023-04-01T23:40:46;24.33;;;12.70;;
19251;SDS011;9760;50.944;5.304;2023-04-01T23:43:24;22.30;;;11.70;;
19251;SDS011;9760;50.944;5.304;2023-04-01T23:45:52;17.73;;;10.40;;
19251;SDS011;9760;50.944;5.304;2023-04-01T23:48:20;17.50;;;9.77;;
19251;SDS011;9760;50.944;5.304;2023-04-01T23:50:57;16.50;;;9.40;;
19251;SDS011;9760;50.944;5.304;2023-04-01T23:53:24;16.30;;;9.03;;
19251;SDS011;9760;50.944;5.304;2023-04-01T23:55:53;17.67;;;9.23;;
